createdAt,value
2023-05-10T00:02:09.026Z,8.72
2023-05-10T00:05:11.685Z,8.59
2023-05-10T00:08:14.762Z,8.55
2023-05-10T00:11:17.185Z,8.45
2023-05-10T00:14:20.606Z,8.48
2023-05-10T00:17:23.257Z,8.52
2023-05-10T00:20:26.086Z,8.51
2023-05-10T00:23:28.847Z,8.48
2023-05-10T00:26:31.440Z,8.64
2023-05-10T00:29:34.868Z,8.70
2023-05-10T00:32:38.464Z,8.73
2023-05-10T00:35:41.390Z,8.74
2023-05-10T00:38:45.596Z,8.76
2023-05-10T00:41:48.190Z,8.81
2023-05-10T00:44:52.529Z,8.85
2023-05-10T00:47:57.118Z,8.86
2023-05-10T00:50:59.977Z,8.90
2023-05-10T00:54:03.433Z,8.89
2023-05-10T00:57:06.138Z,8.91
2023-05-10T01:00:09.668Z,8.97
2023-05-10T01:03:12.693Z,9.05
2023-05-10T01:06:15.496Z,9.13
2023-05-10T01:09:19.486Z,9.00
2023-05-10T01:12:22.374Z,8.97
2023-05-10T01:15:25.436Z,8.90
2023-05-10T01:18:29.062Z,8.98
2023-05-10T01:21:46.387Z,8.94
2023-05-10T01:25:06.949Z,8.99
2023-05-10T01:28:36.815Z,8.97
2023-05-10T01:31:58.252Z,9.00
2023-05-10T01:35:07.580Z,8.96
2023-05-10T01:38:15.788Z,8.92
2023-05-10T01:41:34.218Z,8.98
2023-05-10T01:44:56.977Z,8.87
2023-05-10T01:48:11.937Z,8.86
2023-05-10T01:51:20.991Z,8.63
2023-05-10T01:54:25.818Z,8.57
2023-05-10T01:57:34.056Z,8.49
2023-05-10T02:00:41.068Z,8.38
2023-05-10T02:03:44.746Z,8.17
2023-05-10T02:06:49.187Z,8.03
2023-05-10T02:09:52.454Z,8.10
2023-05-10T02:12:56.836Z,8.01
2023-05-10T02:16:00.871Z,7.87
2023-05-10T02:19:05.360Z,7.80
2023-05-10T02:22:09.969Z,7.93
2023-05-10T02:25:15.079Z,7.85
2023-05-10T02:28:19.178Z,7.81
2023-05-10T02:31:23.177Z,7.64
2023-05-10T02:34:28.424Z,7.47
2023-05-10T02:37:32.496Z,7.52
2023-05-10T02:40:37.860Z,7.40
2023-05-10T02:43:41.907Z,7.24
2023-05-10T02:46:45.102Z,7.16
2023-05-10T02:49:48.598Z,7.12
2023-05-10T02:52:53.344Z,6.96
2023-05-10T02:56:00.283Z,7.06
2023-05-10T02:59:02.952Z,6.96
2023-05-10T03:02:06.396Z,7.06
2023-05-10T03:05:09.208Z,7.14
2023-05-10T03:08:12.177Z,7.23
2023-05-10T03:11:53.125Z,7.17
2023-05-10T03:15:11.086Z,7.28
2023-05-10T03:18:22.823Z,7.32
2023-05-10T03:21:29.884Z,7.34
2023-05-10T03:24:35.380Z,7.35
2023-05-10T03:27:41.520Z,7.31
2023-05-10T03:30:45.950Z,7.23
2023-05-10T03:33:50.824Z,7.37
2023-05-10T03:36:58.975Z,7.32
2023-05-10T03:40:05.553Z,7.40
2023-05-10T03:43:10.472Z,7.50
2023-05-10T03:46:13.483Z,7.61
2023-05-10T03:49:15.908Z,7.61
2023-05-10T03:52:19.547Z,7.81
2023-05-10T03:55:23.489Z,7.80
2023-05-10T03:58:26.802Z,7.97
2023-05-10T04:01:29.492Z,7.90
2023-05-10T04:04:32.215Z,7.97
2023-05-10T04:07:35.092Z,8.00
2023-05-10T04:10:38.199Z,7.98
2023-05-10T04:13:40.574Z,8.04
2023-05-10T04:16:43.516Z,8.08
2023-05-10T04:19:46.092Z,8.10
2023-05-10T04:22:49.135Z,8.08
2023-05-10T04:25:51.890Z,8.21
2023-05-10T04:28:54.533Z,8.18
2023-05-10T04:31:57.644Z,8.26
2023-05-10T04:35:00.397Z,8.39
2023-05-10T04:38:02.990Z,8.46
2023-05-10T04:41:10.321Z,8.72
2023-05-10T04:44:12.774Z,8.99
2023-05-10T04:47:15.677Z,9.20
2023-05-10T04:50:18.745Z,9.50
2023-05-10T04:53:21.999Z,9.75
2023-05-10T04:56:24.519Z,9.74
2023-05-10T04:59:27.636Z,10.04
2023-05-10T05:02:30.236Z,10.16
2023-05-10T05:05:32.995Z,10.34
2023-05-10T05:08:35.632Z,10.41
2023-05-10T05:11:38.419Z,10.41
2023-05-10T05:14:42.233Z,10.44
2023-05-10T05:17:45.299Z,10.82
2023-05-10T05:20:47.782Z,10.97
2023-05-10T05:23:50.715Z,11.21
2023-05-10T05:26:53.092Z,11.10
2023-05-10T05:29:56.360Z,11.35
2023-05-10T05:32:59.134Z,11.16
2023-05-10T05:36:03.083Z,10.99
2023-05-10T05:39:05.888Z,11.24
2023-05-10T05:42:09.098Z,11.58
2023-05-10T05:45:14.192Z,11.86
2023-05-10T05:48:17.117Z,11.71
2023-05-10T05:51:19.592Z,11.55
2023-05-10T05:54:22.681Z,11.83
2023-05-10T05:57:25.375Z,12.02
2023-05-10T06:00:28.125Z,11.21
2023-05-10T06:03:30.818Z,11.32
2023-05-10T06:06:33.571Z,12.39
2023-05-10T06:09:36.057Z,13.27
2023-05-10T06:12:38.909Z,13.70
2023-05-10T06:15:41.361Z,14.07
2023-05-10T06:18:43.982Z,14.26
2023-05-10T06:21:46.398Z,14.63
2023-05-10T06:24:49.215Z,14.08
2023-05-10T06:27:53.737Z,14.45
2023-05-10T06:30:56.797Z,14.11
2023-05-10T06:33:59.195Z,14.99
2023-05-10T06:37:01.784Z,15.13
2023-05-10T06:40:05.022Z,15.85
2023-05-10T06:43:08.286Z,16.20
2023-05-10T06:46:11.031Z,16.74
2023-05-10T06:49:13.759Z,16.95
2023-05-10T06:52:16.676Z,17.31
2023-05-10T06:55:39.130Z,17.90
2023-05-10T06:58:42.018Z,18.33
2023-05-10T07:01:44.752Z,18.34
2023-05-10T07:04:48.438Z,18.34
2023-05-10T07:07:51.376Z,16.97
2023-05-10T07:10:54.080Z,14.70
2023-05-10T07:13:57.066Z,14.84
2023-05-10T07:16:59.612Z,14.39
2023-05-10T07:20:02.637Z,14.59
2023-05-10T07:23:05.220Z,14.87
2023-05-10T07:26:08.131Z,14.78
2023-05-10T07:29:11.137Z,15.06
2023-05-10T07:32:13.770Z,15.85
2023-05-10T07:35:16.633Z,16.21
2023-05-10T07:38:19.346Z,17.64
2023-05-10T07:41:22.482Z,19.05
2023-05-10T07:44:25.428Z,19.51
2023-05-10T07:47:28.098Z,17.81
2023-05-10T07:50:30.702Z,17.55
2023-05-10T07:53:33.317Z,16.32
2023-05-10T07:56:36.063Z,16.90
2023-05-10T07:59:38.761Z,16.92
2023-05-10T08:02:41.931Z,16.56
2023-05-10T08:05:44.609Z,17.66
2023-05-10T08:08:50.456Z,18.55
2023-05-10T08:11:53.077Z,19.07
2023-05-10T08:14:55.675Z,18.30
2023-05-10T08:17:58.288Z,18.00
2023-05-10T08:21:00.787Z,18.27
2023-05-10T08:24:03.706Z,18.21
2023-05-10T08:27:06.652Z,18.91
2023-05-10T08:30:09.871Z,19.61
2023-05-10T08:33:12.600Z,18.26
2023-05-10T08:36:21.041Z,17.66
2023-05-10T08:39:30.340Z,18.46
2023-05-10T08:42:38.965Z,19.19
2023-05-10T08:45:44.000Z,18.04
2023-05-10T08:48:47.523Z,17.82
2023-05-10T08:51:56.138Z,17.12
2023-05-10T08:54:59.218Z,17.12
2023-05-10T08:58:01.919Z,19.06
2023-05-10T09:01:05.976Z,18.88
2023-05-10T09:04:08.745Z,16.76
2023-05-10T09:07:11.879Z,17.25
2023-05-10T09:10:15.854Z,17.78
2023-05-10T09:13:18.601Z,17.68
2023-05-10T09:16:22.478Z,16.73
2023-05-10T09:19:25.136Z,15.78
2023-05-10T09:22:28.235Z,15.77
2023-05-10T09:25:30.811Z,15.27
2023-05-10T09:28:52.542Z,15.51
2023-05-10T09:31:57.502Z,15.85
2023-05-10T09:35:07.812Z,15.32
2023-05-10T09:38:11.432Z,15.00
2023-05-10T09:41:22.567Z,14.87
2023-05-10T09:44:27.104Z,15.04
2023-05-10T09:47:30.083Z,15.43
2023-05-10T09:50:32.722Z,15.32
2023-05-10T09:53:35.658Z,15.60
2023-05-10T09:56:41.387Z,15.99
2023-05-10T09:59:44.636Z,15.93
2023-05-10T10:02:58.149Z,15.86
2023-05-10T10:06:01.494Z,15.87
2023-05-10T10:09:04.109Z,16.60
2023-05-10T10:12:06.887Z,17.04
2023-05-10T10:15:10.538Z,17.35
2023-05-10T10:18:18.199Z,17.61
2023-05-10T10:21:21.490Z,17.79
2023-05-10T10:24:24.088Z,18.17
2023-05-10T10:27:38.836Z,20.29
2023-05-10T10:30:49.180Z,20.25
2023-05-10T10:34:06.430Z,19.98
2023-05-10T10:37:09.473Z,21.22
2023-05-10T10:40:26.757Z,22.05
2023-05-10T10:43:30.000Z,21.41
2023-05-10T10:46:35.320Z,21.28
2023-05-10T10:49:41.181Z,22.11
2023-05-10T10:52:45.248Z,22.24
2023-05-10T10:55:49.198Z,21.19
2023-05-10T10:58:52.888Z,22.58
2023-05-10T11:01:55.619Z,23.40
2023-05-10T11:04:58.253Z,23.45
2023-05-10T11:08:01.940Z,21.93
2023-05-10T11:11:09.614Z,21.59
2023-05-10T11:14:12.438Z,22.57
2023-05-10T11:17:26.174Z,24.18
2023-05-10T11:20:34.306Z,23.00
2023-05-10T11:23:57.343Z,21.97
2023-05-10T11:30:04.832Z,21.25
2023-05-10T11:33:10.874Z,21.22
2023-05-10T11:36:19.167Z,23.29
2023-05-10T11:39:22.787Z,23.71
2023-05-10T11:42:25.811Z,23.72
2023-05-10T11:45:30.106Z,22.71
2023-05-10T11:48:32.934Z,22.41
2023-05-10T11:51:37.330Z,21.71
2023-05-10T11:54:52.835Z,21.65
2023-05-10T11:57:56.031Z,22.67
2023-05-10T12:01:00.332Z,22.41
2023-05-10T12:04:03.345Z,22.52
2023-05-10T12:07:06.308Z,21.87
2023-05-10T12:10:15.616Z,24.33
2023-05-10T12:13:20.634Z,23.84
2023-05-10T12:16:29.840Z,22.81
2023-05-10T12:19:39.740Z,22.17
2023-05-10T12:22:44.937Z,21.19
2023-05-10T12:25:48.203Z,21.48
2023-05-10T12:28:50.916Z,21.18
2023-05-10T12:31:58.157Z,20.44
2023-05-10T12:35:00.890Z,19.94
2023-05-10T12:38:31.954Z,20.07
2023-05-10T12:41:34.558Z,19.95
2023-05-10T12:44:37.075Z,19.76
2023-05-10T12:47:41.407Z,20.25
2023-05-10T12:50:45.726Z,20.10
2023-05-10T12:53:49.704Z,19.88
2023-05-10T12:56:52.342Z,19.80
2023-05-10T12:59:55.717Z,19.84
2023-05-10T13:02:58.369Z,20.25
2023-05-10T13:06:01.292Z,20.21
2023-05-10T13:09:04.735Z,19.91
2023-05-10T13:12:09.913Z,19.58
2023-05-10T13:15:12.760Z,20.10
2023-05-10T13:18:15.418Z,20.26
2023-05-10T13:21:18.103Z,19.66
2023-05-10T13:24:20.596Z,19.64
2023-05-10T13:27:23.322Z,19.57
2023-05-10T13:30:26.217Z,19.89
2023-05-10T13:33:29.001Z,20.27
2023-05-10T13:36:32.548Z,20.68
2023-05-10T13:39:35.670Z,21.39
2023-05-10T13:42:38.552Z,21.29
2023-05-10T13:45:41.079Z,21.27
2023-05-10T13:48:43.752Z,21.10
2023-05-10T13:51:46.273Z,20.79
2023-05-10T13:54:49.078Z,20.29
2023-05-10T13:57:51.617Z,20.43
2023-05-10T14:00:54.265Z,20.43
2023-05-10T14:03:57.016Z,20.32
2023-05-10T14:06:59.726Z,19.93
2023-05-10T14:10:02.436Z,19.95
2023-05-10T14:13:04.923Z,20.77
2023-05-10T14:16:07.745Z,21.01
2023-05-10T14:19:10.584Z,21.53
2023-05-10T14:22:13.180Z,21.52
2023-05-10T14:25:16.088Z,20.61
2023-05-10T14:28:19.779Z,21.05
2023-05-10T14:31:22.738Z,21.38
2023-05-10T14:34:25.351Z,21.54
2023-05-10T14:37:27.993Z,21.12
2023-05-10T14:40:31.345Z,21.39
2023-05-10T14:43:34.173Z,21.76
2023-05-10T14:46:37.299Z,21.00
2023-05-10T14:49:40.163Z,20.96
2023-05-10T14:52:42.684Z,21.00
2023-05-10T14:55:45.484Z,20.55
2023-05-10T14:58:48.025Z,20.59
2023-05-10T15:01:51.031Z,20.97
2023-05-10T15:04:58.599Z,21.09
2023-05-10T15:08:01.630Z,20.54
2023-05-10T15:11:04.556Z,20.31
2023-05-10T15:14:07.260Z,20.04
2023-05-10T15:17:10.050Z,20.49
2023-05-10T15:20:12.810Z,20.20
2023-05-10T15:23:15.398Z,20.54
2023-05-10T15:26:18.065Z,20.21
2023-05-10T15:29:21.238Z,20.04
2023-05-10T15:32:23.733Z,20.11
2023-05-10T15:35:27.406Z,19.91
2023-05-10T15:38:29.854Z,19.72
2023-05-10T15:41:32.648Z,19.47
2023-05-10T15:44:36.156Z,19.39
2023-05-10T15:47:40.717Z,19.52
2023-05-10T15:50:43.739Z,19.53
2023-05-10T15:54:00.405Z,19.54
2023-05-10T15:57:08.730Z,19.14
2023-05-10T16:00:13.226Z,19.24
2023-05-10T16:03:16.417Z,19.59
2023-05-10T16:06:19.133Z,19.70
2023-05-10T16:09:22.040Z,19.75
2023-05-10T16:12:24.855Z,19.83
2023-05-10T16:15:27.653Z,19.91
2023-05-10T16:18:30.537Z,19.89
2023-05-10T16:21:33.514Z,19.83
2023-05-10T16:24:37.112Z,19.63
2023-05-10T16:27:39.737Z,19.63
2023-05-10T16:30:42.345Z,19.50
2023-05-10T16:33:45.115Z,19.38
2023-05-10T16:36:47.766Z,19.23
2023-05-10T16:39:50.286Z,19.07
2023-05-10T16:42:52.923Z,18.98
2023-05-10T16:45:55.499Z,18.94
2023-05-10T16:48:59.994Z,18.76
2023-05-10T16:52:03.304Z,18.56
2023-05-10T16:55:06.774Z,18.52
2023-05-10T16:58:09.925Z,18.46
2023-05-10T17:01:12.900Z,18.27
2023-05-10T17:04:16.515Z,18.25
2023-05-10T17:07:19.665Z,18.13
2023-05-10T17:10:22.041Z,18.10
2023-05-10T17:13:25.146Z,17.98
2023-05-10T17:16:28.004Z,17.74
2023-05-10T17:19:30.836Z,17.62
2023-05-10T17:22:33.664Z,17.33
2023-05-10T17:25:36.875Z,17.20
2023-05-10T17:28:39.339Z,17.07
2023-05-10T17:31:42.214Z,16.91
2023-05-10T17:34:44.736Z,16.72
2023-05-10T17:37:47.407Z,16.57
2023-05-10T17:40:51.087Z,16.32
2023-05-10T17:43:54.394Z,15.92
2023-05-10T17:46:57.028Z,15.77
2023-05-10T17:49:59.828Z,15.78
2023-05-10T17:53:02.979Z,15.56
2023-05-10T17:56:05.968Z,15.37
2023-05-10T17:59:08.954Z,15.15
2023-05-10T18:02:11.588Z,14.96
2023-05-10T18:05:14.397Z,14.58
2023-05-10T18:08:22.616Z,14.42
2023-05-10T18:11:25.057Z,14.16
2023-05-10T18:14:40.095Z,14.06
2023-05-10T18:17:43.927Z,13.82
2023-05-10T18:20:46.789Z,13.71
2023-05-10T18:23:49.697Z,13.53
2023-05-10T18:26:52.657Z,13.42
2023-05-10T18:29:55.276Z,13.34
2023-05-10T18:32:58.612Z,13.34
2023-05-10T18:36:02.424Z,13.07
2023-05-10T18:39:05.632Z,13.02
2023-05-10T18:42:09.151Z,12.89
2023-05-10T18:45:12.913Z,12.84
2023-05-10T18:48:15.559Z,12.86
2023-05-10T18:51:18.533Z,12.79
2023-05-10T18:54:21.132Z,12.63
2023-05-10T18:57:24.242Z,12.52
2023-05-10T19:00:27.277Z,12.52
2023-05-10T19:03:30.336Z,12.52
2023-05-10T19:06:33.837Z,12.48
2023-05-10T19:09:36.897Z,12.35
2023-05-10T19:12:41.345Z,12.13
2023-05-10T19:15:44.505Z,12.17
2023-05-10T19:18:47.410Z,12.18
2023-05-10T19:21:50.459Z,12.17
2023-05-10T19:24:53.571Z,12.11
2023-05-10T19:27:57.971Z,12.14
2023-05-10T19:31:01.837Z,12.13
2023-05-10T19:34:04.846Z,12.06
2023-05-10T19:37:07.719Z,12.13
2023-05-10T19:40:10.553Z,12.07
2023-05-10T19:43:13.443Z,12.09
2023-05-10T19:46:17.933Z,12.07
2023-05-10T19:49:23.308Z,12.03
2023-05-10T19:52:26.121Z,12.04
2023-05-10T19:55:30.020Z,11.91
2023-05-10T19:58:33.750Z,11.74
2023-05-10T20:01:36.641Z,11.47
2023-05-10T20:04:39.679Z,11.48
2023-05-10T20:07:42.223Z,11.62
2023-05-10T20:10:45.278Z,11.56
2023-05-10T20:13:47.665Z,11.53
2023-05-10T20:16:50.618Z,11.45
2023-05-10T20:19:53.141Z,11.33
2023-05-10T20:22:55.789Z,11.37
2023-05-10T20:25:58.586Z,11.32
2023-05-10T20:29:01.277Z,11.29
2023-05-10T20:32:04.052Z,11.21
2023-05-10T20:35:07.519Z,11.17
2023-05-10T20:38:10.373Z,11.08
2023-05-10T20:41:13.075Z,11.05
2023-05-10T20:44:15.712Z,10.91
2023-05-10T20:47:18.619Z,10.90
2023-05-10T20:50:21.173Z,10.87
2023-05-10T20:53:23.886Z,10.94
2023-05-10T20:56:26.841Z,10.90
2023-05-10T20:59:29.660Z,10.78
2023-05-10T21:02:33.932Z,10.73
2023-05-10T21:05:36.891Z,10.60
2023-05-10T21:08:39.532Z,10.58
2023-05-10T21:11:42.208Z,10.50
2023-05-10T21:14:46.860Z,10.58
2023-05-10T21:17:49.840Z,10.62
2023-05-10T21:20:52.520Z,10.51
2023-05-10T21:23:55.100Z,10.41
2023-05-10T21:26:57.840Z,10.44
2023-05-10T21:30:00.550Z,10.40
2023-05-10T21:33:03.707Z,10.29
2023-05-10T21:36:06.683Z,10.41
2023-05-10T21:39:09.123Z,10.39
2023-05-10T21:42:11.935Z,10.39
2023-05-10T21:45:14.344Z,10.42
2023-05-10T21:48:16.956Z,10.47
2023-05-10T21:51:19.674Z,10.44
2023-05-10T21:54:22.338Z,10.31
2023-05-10T21:57:25.114Z,10.18
2023-05-10T22:00:27.915Z,10.06
2023-05-10T22:03:31.036Z,10.01
2023-05-10T22:06:33.709Z,9.68
2023-05-10T22:09:36.660Z,9.71
2023-05-10T22:12:39.336Z,9.44
2023-05-10T22:15:41.947Z,9.37
2023-05-10T22:18:44.719Z,9.40
2023-05-10T22:21:47.462Z,9.38
2023-05-10T22:24:50.158Z,9.35
2023-05-10T22:27:52.978Z,9.43
2023-05-10T22:30:55.720Z,9.35
2023-05-10T22:33:58.419Z,9.42
2023-05-10T22:37:02.854Z,9.33
2023-05-10T22:40:05.973Z,9.20
2023-05-10T22:43:08.802Z,9.03
2023-05-10T22:46:11.215Z,9.04
2023-05-10T22:49:14.332Z,8.89
2023-05-10T22:52:16.878Z,8.79
2023-05-10T22:55:19.631Z,8.72
2023-05-10T22:58:22.066Z,8.59
2023-05-10T23:01:24.710Z,8.57
2023-05-10T23:04:27.834Z,8.56
2023-05-10T23:07:30.456Z,8.46
2023-05-10T23:10:33.045Z,8.46
2023-05-10T23:13:36.098Z,8.42
2023-05-10T23:16:39.173Z,8.31
2023-05-10T23:19:42.344Z,8.23
2023-05-10T23:22:45.004Z,8.20
2023-05-10T23:25:47.730Z,8.22
2023-05-10T23:28:50.104Z,8.21
2023-05-10T23:31:53.288Z,8.12
2023-05-10T23:34:55.733Z,8.06
2023-05-10T23:37:58.737Z,8.11
2023-05-10T23:41:01.412Z,8.01
2023-05-10T23:44:04.376Z,7.95
2023-05-10T23:47:07.313Z,7.91
2023-05-10T23:50:10.725Z,7.94
2023-05-10T23:53:13.145Z,7.87
2023-05-10T23:56:15.945Z,7.80
2023-05-10T23:59:18.667Z,7.77
